createdAt,value
2019-04-14T00:00:42.805Z,3.90
2019-04-14T00:03:43.493Z,3.70
2019-04-14T00:06:30.922Z,3.90
2019-04-14T00:09:20.521Z,4.10
2019-04-14T00:12:10.482Z,4.00
2019-04-14T00:14:57.635Z,4.10
2019-04-14T00:17:45.641Z,4.10
2019-04-14T00:20:33.677Z,4.20
2019-04-14T00:23:21.549Z,4.20
2019-04-14T00:26:27.171Z,4.20
2019-04-14T00:29:15.206Z,4.00
2019-04-14T00:32:03.069Z,3.80
2019-04-14T00:34:52.701Z,3.70
2019-04-14T00:37:42.378Z,3.60
2019-04-14T00:40:49.762Z,3.70
2019-04-14T00:43:39.517Z,3.90
2019-04-14T00:46:43.026Z,3.60
2019-04-14T00:49:31.085Z,3.60
2019-04-14T00:52:18.987Z,3.70
2019-04-14T00:55:07.582Z,3.70
2019-04-14T00:57:55.124Z,3.70
2019-04-14T01:00:43.014Z,3.50
2019-04-14T01:03:30.960Z,3.50
2019-04-14T01:06:18.593Z,3.50
2019-04-14T01:09:08.654Z,3.70
2019-04-14T01:11:55.458Z,3.80
2019-04-14T01:14:43.128Z,4.00
2019-04-14T01:17:30.948Z,3.70
2019-04-14T01:20:18.889Z,3.70
2019-04-14T01:23:06.421Z,3.80
2019-04-14T01:25:54.207Z,3.90
2019-04-14T01:28:41.877Z,3.90
2019-04-14T01:31:29.582Z,4.00
2019-04-14T01:34:17.328Z,4.00
2019-04-14T01:37:05.148Z,4.00
2019-04-14T01:39:52.490Z,3.90
2019-04-14T01:42:39.912Z,3.80
2019-04-14T01:45:27.471Z,3.60
2019-04-14T01:48:14.878Z,3.80
2019-04-14T01:51:20.240Z,3.70
2019-04-14T01:54:15.391Z,3.70
2019-04-14T01:57:20.414Z,3.50
2019-04-14T02:00:27.004Z,3.70
2019-04-14T02:03:14.900Z,3.70
2019-04-14T02:06:02.633Z,3.70
2019-04-14T02:08:50.171Z,3.80
2019-04-14T02:11:37.735Z,3.80
2019-04-14T02:14:25.532Z,3.70
2019-04-14T02:17:13.254Z,3.80
2019-04-14T02:20:01.211Z,3.80
2019-04-14T02:22:48.500Z,3.80
2019-04-14T02:25:36.042Z,3.80
2019-04-14T02:28:24.169Z,3.70
2019-04-14T02:31:24.819Z,3.70
2019-04-14T02:34:34.310Z,3.50
2019-04-14T02:40:03.932Z,3.50
2019-04-14T02:42:54.755Z,3.60
2019-04-14T02:45:43.156Z,3.70
2019-04-14T02:51:19.118Z,3.70
2019-04-14T02:54:05.025Z,3.60
2019-04-14T02:57:02.064Z,3.60
2019-04-14T02:59:43.199Z,3.50
2019-04-14T03:02:44.488Z,3.60
2019-04-14T03:05:16.342Z,3.70
2019-04-14T03:08:12.555Z,3.60
2019-04-14T03:16:58.273Z,3.60
2019-04-14T03:20:11.252Z,3.60
2019-04-14T03:25:49.158Z,3.60
2019-04-14T03:34:34.887Z,3.50
2019-04-14T03:40:01.171Z,3.60
2019-04-14T03:45:43.290Z,3.60
2019-04-14T03:53:58.743Z,3.50
2019-04-14T03:56:46.642Z,3.50
2019-04-14T03:59:34.542Z,3.50
2019-04-14T04:02:22.652Z,3.50
2019-04-14T04:05:10.710Z,3.50
2019-04-14T04:07:58.093Z,3.50
2019-04-14T04:10:53.283Z,3.50
2019-04-14T04:13:41.213Z,3.40
2019-04-14T04:16:46.247Z,3.40
2019-04-14T04:19:35.900Z,3.40
2019-04-14T04:22:43.458Z,3.40
2019-04-14T04:25:31.861Z,3.40
2019-04-14T04:28:26.112Z,3.40
2019-04-14T04:31:20.622Z,3.50
2019-04-14T04:34:27.360Z,3.50
2019-04-14T04:37:19.262Z,3.40
2019-04-14T04:40:12.154Z,3.50
2019-04-14T04:42:59.333Z,3.50
2019-04-14T04:45:47.381Z,3.40
2019-04-14T04:48:34.984Z,3.50
2019-04-14T04:51:22.479Z,3.30
2019-04-14T04:54:10.314Z,3.40
2019-04-14T04:56:58.030Z,3.40
2019-04-14T04:59:45.363Z,3.40
2019-04-14T05:02:33.150Z,3.30
2019-04-14T05:05:57.851Z,3.30
2019-04-14T05:08:48.017Z,3.30
2019-04-14T05:11:36.923Z,3.20
2019-04-14T05:14:26.211Z,3.30
2019-04-14T05:17:15.041Z,3.20
2019-04-14T05:20:03.052Z,3.30
2019-04-14T05:22:50.820Z,3.10
2019-04-14T05:25:38.609Z,3.10
2019-04-14T05:28:26.711Z,3.20
2019-04-14T05:31:14.332Z,3.20
2019-04-14T05:34:02.251Z,3.30
2019-04-14T05:36:49.996Z,3.20
2019-04-14T05:39:37.480Z,3.20
2019-04-14T05:42:26.912Z,3.20
2019-04-14T05:45:13.348Z,3.30
2019-04-14T05:48:01.079Z,3.30
2019-04-14T05:50:49.033Z,3.20
2019-04-14T05:53:37.160Z,3.10
2019-04-14T05:56:25.243Z,3.20
2019-04-14T05:59:13.413Z,3.20
2019-04-14T06:02:00.895Z,3.20
2019-04-14T06:04:48.317Z,3.20
2019-04-14T06:07:35.534Z,3.30
2019-04-14T06:10:22.876Z,3.40
2019-04-14T06:13:11.785Z,3.40
2019-04-14T06:15:58.923Z,3.20
2019-04-14T06:18:46.125Z,3.20
2019-04-14T06:21:33.153Z,3.30
2019-04-14T06:24:20.082Z,3.20
2019-04-14T06:27:07.474Z,3.30
2019-04-14T06:29:56.013Z,3.10
2019-04-14T06:32:44.722Z,3.30
2019-04-14T06:35:51.184Z,3.30
2019-04-14T06:38:39.563Z,3.20
2019-04-14T06:41:26.340Z,3.30
2019-04-14T06:44:13.437Z,3.30
2019-04-14T06:47:00.538Z,2.90
2019-04-14T06:49:49.166Z,3.00
2019-04-14T06:52:36.023Z,2.90
2019-04-14T06:55:22.995Z,3.00
2019-04-14T06:58:09.967Z,3.00
2019-04-14T07:00:56.914Z,3.10
2019-04-14T07:03:44.278Z,3.10
2019-04-14T07:06:31.270Z,3.10
2019-04-14T07:09:18.291Z,3.20
2019-04-14T07:12:05.653Z,3.20
2019-04-14T07:14:53.214Z,3.30
2019-04-14T07:17:40.445Z,3.20
2019-04-14T07:20:27.457Z,3.20
2019-04-14T07:23:14.905Z,3.30
2019-04-14T07:26:02.035Z,3.30
2019-04-14T07:28:56.516Z,3.30
2019-04-14T07:31:56.118Z,3.30
2019-04-14T07:34:47.890Z,3.20
2019-04-14T07:37:36.727Z,3.20
2019-04-14T07:40:25.383Z,3.30
2019-04-14T07:43:19.800Z,3.50
2019-04-14T07:46:14.453Z,3.60
2019-04-14T07:49:11.945Z,3.50
2019-04-14T07:52:06.482Z,3.40
2019-04-14T07:54:55.091Z,3.60
2019-04-14T07:58:00.047Z,3.80
2019-04-14T08:00:51.721Z,3.90
2019-04-14T08:03:52.415Z,3.90
2019-04-14T08:06:39.681Z,4.20
2019-04-14T08:09:26.744Z,4.30
2019-04-14T08:12:14.037Z,4.20
2019-04-14T08:15:01.026Z,4.30
2019-04-14T08:17:48.117Z,4.30
2019-04-14T08:20:35.859Z,4.30
2019-04-14T08:23:22.987Z,4.40
2019-04-14T08:26:10.391Z,4.50
2019-04-14T08:28:57.428Z,4.20
2019-04-14T08:31:44.911Z,4.20
2019-04-14T08:34:32.194Z,4.30
2019-04-14T08:37:19.093Z,4.20
2019-04-14T08:40:06.254Z,4.40
2019-04-14T08:43:11.024Z,4.30
2019-04-14T08:46:16.280Z,4.40
2019-04-14T08:49:07.682Z,4.10
2019-04-14T08:52:12.692Z,4.10
2019-04-14T08:55:04.502Z,4.30
2019-04-14T08:57:53.171Z,4.40
2019-04-14T09:00:56.726Z,4.30
2019-04-14T09:03:51.185Z,4.40
2019-04-14T09:06:45.722Z,4.40
2019-04-14T09:09:40.225Z,4.50
2019-04-14T09:12:45.015Z,4.20
2019-04-14T09:15:32.264Z,4.50
2019-04-14T09:18:19.726Z,4.70
2019-04-14T09:21:07.094Z,4.90
2019-04-14T09:23:56.826Z,4.80
2019-04-14T09:26:43.230Z,4.60
2019-04-14T09:29:30.351Z,4.70
2019-04-14T09:32:17.539Z,4.80
2019-04-14T09:35:05.842Z,5.00
2019-04-14T09:37:52.999Z,4.70
2019-04-14T09:40:40.321Z,4.40
2019-04-14T09:43:27.489Z,4.60
2019-04-14T09:46:14.245Z,4.80
2019-04-14T09:49:01.171Z,4.90
2019-04-14T09:51:48.472Z,5.00
2019-04-14T09:54:35.649Z,5.00
2019-04-14T09:57:23.113Z,5.10
2019-04-14T10:00:12.538Z,5.10
2019-04-14T10:02:59.596Z,5.00
2019-04-14T10:05:46.868Z,5.00
2019-04-14T10:08:33.983Z,5.00
2019-04-14T10:11:20.921Z,4.70
2019-04-14T10:14:08.278Z,4.90
2019-04-14T10:16:55.444Z,5.00
2019-04-14T10:19:42.519Z,5.20
2019-04-14T10:22:34.192Z,5.20
2019-04-14T10:25:18.504Z,5.20
2019-04-14T10:28:05.296Z,5.50
2019-04-14T10:30:52.353Z,5.50
2019-04-14T10:33:39.663Z,5.60
2019-04-14T10:36:26.995Z,5.60
2019-04-14T10:39:14.088Z,5.30
2019-04-14T10:42:01.523Z,5.30
2019-04-14T10:44:48.762Z,5.30
2019-04-14T10:47:35.854Z,5.30
2019-04-14T10:50:30.855Z,5.20
2019-04-14T10:53:11.381Z,5.50
2019-04-14T10:55:58.968Z,5.60
2019-04-14T10:58:46.298Z,5.80
2019-04-14T11:01:36.089Z,6.50
2019-04-14T11:04:23.101Z,6.40
2019-04-14T11:07:12.173Z,6.30
2019-04-14T11:09:59.484Z,6.10
2019-04-14T11:12:47.001Z,6.40
2019-04-14T11:15:34.376Z,5.90
2019-04-14T11:18:21.855Z,6.10
2019-04-14T11:21:08.938Z,6.10
2019-04-14T11:23:56.030Z,6.10
2019-04-14T11:26:43.583Z,6.50
2019-04-14T11:29:30.896Z,6.40
2019-04-14T11:32:19.947Z,6.30
2019-04-14T11:35:16.309Z,6.90
2019-04-14T11:38:13.081Z,7.30
2019-04-14T11:41:02.094Z,7.40
2019-04-14T11:43:49.140Z,7.10
2019-04-14T11:46:36.742Z,7.10
2019-04-14T11:49:23.783Z,7.40
2019-04-14T11:52:11.042Z,7.70
2019-04-14T11:54:57.775Z,8.40
2019-04-14T11:57:45.281Z,8.30
2019-04-14T12:00:50.026Z,8.20
2019-04-14T12:03:55.069Z,8.20
2019-04-14T12:06:49.219Z,8.10
2019-04-14T12:09:37.853Z,7.90
2019-04-14T12:12:24.880Z,7.40
2019-04-14T12:15:16.187Z,7.90
2019-04-14T12:18:01.334Z,8.30
2019-04-14T12:20:48.294Z,8.20
2019-04-14T12:23:35.553Z,8.70
2019-04-14T12:26:22.737Z,8.60
2019-04-14T12:29:11.856Z,8.90
2019-04-14T12:31:59.611Z,9.20
2019-04-14T12:34:46.740Z,8.70
2019-04-14T12:37:33.781Z,8.90
2019-04-14T12:40:20.829Z,8.50
2019-04-14T12:43:25.850Z,8.30
2019-04-14T12:46:23.564Z,8.30
2019-04-14T12:49:17.674Z,8.50
2019-04-14T12:52:21.527Z,8.80
2019-04-14T12:55:07.484Z,8.70
2019-04-14T12:57:56.443Z,8.80
2019-04-14T13:00:45.482Z,8.40
2019-04-14T13:03:35.503Z,8.60
2019-04-14T13:06:22.578Z,8.50
2019-04-14T13:09:09.839Z,8.90
2019-04-14T13:11:56.933Z,9.20
2019-04-14T13:14:43.995Z,9.20
2019-04-14T13:17:31.205Z,9.10
2019-04-14T13:20:18.634Z,9.00
2019-04-14T13:23:05.748Z,9.30
2019-04-14T13:25:53.118Z,9.50
2019-04-14T13:28:40.087Z,9.40
2019-04-14T13:31:27.759Z,9.40
2019-04-14T13:34:14.772Z,9.70
2019-04-14T13:37:02.211Z,9.70
2019-04-14T13:39:49.292Z,9.70
2019-04-14T13:42:36.675Z,9.60
2019-04-14T13:45:24.054Z,9.10
2019-04-14T13:48:11.458Z,9.20
2019-04-14T13:50:58.821Z,8.60
2019-04-14T13:53:46.122Z,8.60
2019-04-14T13:56:33.770Z,8.60
2019-04-14T13:59:20.793Z,8.80
2019-04-14T14:02:07.770Z,8.90
2019-04-14T14:04:54.813Z,8.80
2019-04-14T14:07:42.088Z,9.00
2019-04-14T14:10:30.446Z,8.60
2019-04-14T14:13:28.413Z,8.90
2019-04-14T14:16:20.730Z,9.00
2019-04-14T14:19:09.448Z,8.30
2019-04-14T14:22:12.887Z,7.70
2019-04-14T14:25:10.270Z,8.00
2019-04-14T14:27:57.545Z,8.00
2019-04-14T14:30:44.633Z,8.60
2019-04-14T14:33:32.122Z,8.50
2019-04-14T14:36:19.153Z,9.10
2019-04-14T14:39:09.290Z,8.90
2019-04-14T14:41:56.094Z,8.90
2019-04-14T14:44:53.895Z,9.40
2019-04-14T14:47:42.634Z,9.50
2019-04-14T14:50:31.679Z,9.60
2019-04-14T14:53:18.887Z,9.20
2019-04-14T14:56:05.946Z,9.50
2019-04-14T14:58:53.475Z,9.60
2019-04-14T15:01:40.636Z,9.80
2019-04-14T15:04:27.616Z,9.90
2019-04-14T15:07:15.061Z,9.90
2019-04-14T15:10:02.331Z,9.80
2019-04-14T15:12:49.430Z,9.50
2019-04-14T15:15:36.912Z,9.60
2019-04-14T15:18:24.310Z,9.90
2019-04-14T15:21:11.241Z,9.60
2019-04-14T15:23:58.345Z,9.60
2019-04-14T15:26:45.791Z,9.50
2019-04-14T15:29:33.368Z,9.70
2019-04-14T15:32:20.477Z,9.70
2019-04-14T15:35:07.839Z,9.50
2019-04-14T15:37:54.831Z,9.70
2019-04-14T15:40:41.755Z,9.60
2019-04-14T15:43:28.626Z,9.30
2019-04-14T15:46:15.930Z,9.50
2019-04-14T15:49:03.045Z,9.10
2019-04-14T15:51:50.114Z,9.20
2019-04-14T15:54:40.370Z,9.20
2019-04-14T15:57:31.908Z,9.00
2019-04-14T16:00:36.981Z,9.00
2019-04-14T16:03:34.770Z,9.00
2019-04-14T16:06:23.530Z,8.90
2019-04-14T16:09:15.314Z,9.00
2019-04-14T16:12:03.864Z,9.00
2019-04-14T16:14:58.214Z,9.10
2019-04-14T16:17:52.878Z,9.20
2019-04-14T16:20:41.429Z,9.10
2019-04-14T16:23:28.715Z,9.10
2019-04-14T16:26:26.273Z,9.00
2019-04-14T16:29:20.848Z,9.00
2019-04-14T16:32:12.527Z,8.80
2019-04-14T16:35:01.102Z,8.80
2019-04-14T16:37:48.121Z,8.80
2019-04-14T16:40:36.128Z,8.80
2019-04-14T16:43:26.136Z,8.70
2019-04-14T16:46:12.866Z,8.70
2019-04-14T16:49:00.244Z,8.70
2019-04-14T16:51:58.099Z,8.40
2019-04-14T16:54:52.822Z,8.60
2019-04-14T16:57:44.353Z,8.50
2019-04-14T17:00:38.910Z,8.40
2019-04-14T17:03:25.959Z,8.20
2019-04-14T17:06:13.220Z,8.10
2019-04-14T17:09:00.302Z,8.20
2019-04-14T17:11:47.374Z,7.90
2019-04-14T17:14:44.681Z,7.90
2019-04-14T17:17:39.453Z,8.00
2019-04-14T17:20:28.293Z,7.90
2019-04-14T17:23:19.493Z,7.80
2019-04-14T17:26:10.710Z,7.80
2019-04-14T17:28:59.419Z,7.90
2019-04-14T17:32:04.616Z,7.90
2019-04-14T17:34:53.477Z,7.70
2019-04-14T17:37:42.226Z,7.80
2019-04-14T17:40:33.849Z,7.70
2019-04-14T17:43:22.765Z,7.60
2019-04-14T17:46:11.735Z,7.70
2019-04-14T17:49:06.275Z,7.50
2019-04-14T17:52:11.114Z,7.50
2019-04-14T17:55:00.191Z,7.20
2019-04-14T17:57:57.646Z,7.50
2019-04-14T18:00:48.993Z,7.50
2019-04-14T18:03:37.938Z,7.70
2019-04-14T18:06:35.372Z,7.60
2019-04-14T18:09:28.865Z,7.50
2019-04-14T18:12:34.980Z,7.50
2019-04-14T18:15:23.579Z,7.30
2019-04-14T18:18:28.480Z,7.40
2019-04-14T18:21:15.897Z,7.40
2019-04-14T18:24:03.413Z,7.40
2019-04-14T18:26:50.702Z,7.50
2019-04-14T18:29:51.627Z,7.50
2019-04-14T18:32:40.524Z,7.20
2019-04-14T18:35:29.515Z,7.20
2019-04-14T18:38:33.362Z,7.30
2019-04-14T18:41:31.232Z,7.30
2019-04-14T18:44:25.893Z,7.20
2019-04-14T18:47:17.489Z,7.10
2019-04-14T18:50:06.848Z,7.10
2019-04-14T18:52:58.337Z,7.10
2019-04-14T18:55:49.936Z,7.00
2019-04-14T18:58:38.731Z,7.10
2019-04-14T19:01:27.590Z,7.00
2019-04-14T19:04:15.007Z,7.10
2019-04-14T19:07:02.216Z,7.10
2019-04-14T19:09:49.572Z,6.90
2019-04-14T19:12:41.173Z,6.90
2019-04-14T19:15:35.656Z,7.00
2019-04-14T19:18:27.408Z,7.00
2019-04-14T19:21:19.076Z,7.00
2019-04-14T19:24:06.194Z,6.90
2019-04-14T19:26:53.482Z,6.60
2019-04-14T19:29:40.544Z,6.40
2019-04-14T19:32:27.608Z,6.60
2019-04-14T19:35:14.507Z,6.50
2019-04-14T19:38:01.793Z,6.70
2019-04-14T19:40:49.217Z,6.60
2019-04-14T19:43:36.545Z,6.50
2019-04-14T19:46:24.075Z,6.50
2019-04-14T19:49:11.008Z,6.40
2019-04-14T19:51:58.135Z,6.30
2019-04-14T19:54:45.308Z,6.20
2019-04-14T19:57:32.461Z,6.20
2019-04-14T20:00:20.207Z,5.80
2019-04-14T20:03:07.074Z,5.70
2019-04-14T20:05:54.433Z,5.80
2019-04-14T20:08:41.874Z,5.80
2019-04-14T20:11:29.351Z,5.70
2019-04-14T20:14:16.233Z,5.90
2019-04-14T20:17:06.009Z,6.00
2019-04-14T20:20:03.905Z,5.90
2019-04-14T20:22:52.554Z,6.10
2019-04-14T20:25:59.293Z,6.10
2019-04-14T20:28:47.913Z,6.00
2019-04-14T20:31:42.409Z,5.90
2019-04-14T20:34:29.551Z,5.90
2019-04-14T20:37:16.855Z,5.80
2019-04-14T20:40:05.514Z,5.90
2019-04-14T20:42:52.855Z,5.80
2019-04-14T20:45:39.789Z,5.80
2019-04-14T20:48:27.172Z,5.70
2019-04-14T20:51:14.277Z,5.40
2019-04-14T20:54:01.716Z,5.40
2019-04-14T20:56:48.353Z,5.50
2019-04-14T20:59:35.449Z,5.30
2019-04-14T21:02:24.236Z,5.30
2019-04-14T21:05:28.277Z,5.10
2019-04-14T21:08:17.082Z,5.20
2019-04-14T21:11:06.126Z,5.00
2019-04-14T21:13:57.675Z,4.80
2019-04-14T21:16:52.167Z,4.80
2019-04-14T21:19:47.013Z,4.80
2019-04-14T21:22:35.879Z,4.60
2019-04-14T21:25:24.854Z,4.70
2019-04-14T21:28:16.229Z,4.80
2019-04-14T21:31:10.649Z,4.90
2019-04-14T21:34:02.248Z,4.90
2019-04-14T21:36:53.881Z,4.60
2019-04-14T21:39:45.409Z,4.70
2019-04-14T21:42:32.225Z,4.70
2019-04-14T21:45:19.364Z,4.80
2019-04-14T21:48:06.317Z,4.70
2019-04-14T21:50:53.930Z,4.70
2019-04-14T21:53:41.571Z,4.50
2019-04-14T21:56:30.505Z,4.40
2019-04-14T21:59:19.351Z,4.20
2019-04-14T22:02:23.805Z,4.20
2019-04-14T22:05:12.795Z,4.20
2019-04-14T22:08:03.882Z,4.20
2019-04-14T22:10:55.426Z,4.30
2019-04-14T22:13:42.703Z,4.20
2019-04-14T22:16:29.864Z,4.10
2019-04-14T22:19:16.677Z,4.20
2019-04-14T22:22:03.870Z,4.00
2019-04-14T22:24:50.786Z,4.00
2019-04-14T22:27:38.117Z,3.70
2019-04-14T22:30:25.583Z,3.80
2019-04-14T22:33:12.598Z,3.80
2019-04-14T22:35:59.854Z,3.80
2019-04-14T22:38:46.998Z,3.80
2019-04-14T22:41:34.275Z,3.80
2019-04-14T22:44:21.196Z,3.70
2019-04-14T22:47:08.366Z,3.50
2019-04-14T22:49:55.401Z,3.60
2019-04-14T22:52:42.426Z,3.60
2019-04-14T22:55:29.858Z,3.50
2019-04-14T22:58:16.946Z,3.60
2019-04-14T23:01:05.950Z,3.50
2019-04-14T23:04:03.557Z,3.50
2019-04-14T23:06:55.245Z,3.50
2019-04-14T23:09:49.644Z,3.60
2019-04-14T23:12:50.186Z,3.50
2019-04-14T23:15:53.802Z,3.50
2019-04-14T23:18:42.519Z,3.50
2019-04-14T23:21:47.541Z,3.40
2019-04-14T23:24:36.203Z,3.40
2019-04-14T23:27:23.244Z,3.40
2019-04-14T23:30:10.630Z,3.40
2019-04-14T23:32:58.053Z,3.40
2019-04-14T23:35:45.015Z,3.40
2019-04-14T23:38:32.329Z,3.30
2019-04-14T23:41:19.411Z,3.10
2019-04-14T23:44:06.376Z,3.00
2019-04-14T23:46:53.646Z,3.20
2019-04-14T23:49:40.642Z,3.20
2019-04-14T23:52:27.925Z,3.10
2019-04-14T23:55:15.156Z,3.10
2019-04-14T23:58:02.435Z,3.10
